Time;durP1;ratioP1;P1;durP2;ratioP2;P2;SDS_P1;SDS_P2;PMS_P1;PMS_P2;Temp;Humidity;BMP_temperature;BMP_pressure;BME280_temperature;BME280_humidity;BME280_pressure;Samples;Min_cycle;Max_cycle;Signal;HPM_P1;HPM_P2
2023/08/31 00:01:35;;;;;;;11.70;5.40;;;;;;;15.31;100.00;100029.72;105187;1264;67160;-63
2023/08/31 00:04:02;;;;;;;12.00;5.50;;;;;;;15.34;100.00;100030.64;104788;1267;72003;-60
2023/08/31 00:06:30;;;;;;;13.90;5.90;;;;;;;15.38;100.00;100031.61;105063;1264;61342;-62
2023/08/31 00:08:57;;;;;;;12.60;6.00;;;;;;;15.40;100.00;100029.16;104936;1265;61265;-60
2023/08/31 00:11:25;;;;;;;11.50;5.20;;;;;;;15.40;100.00;100029.11;104959;1263;73520;-63
2023/08/31 00:13:52;;;;;;;11.90;6.70;;;;;;;15.40;100.00;100027.05;104891;1264;67271;-61
2023/08/31 00:16:24;;;;;;;11.80;5.80;;;;;;;15.40;100.00;100023.55;104955;1267;71525;-62
2023/08/31 00:18:51;;;;;;;11.60;6.20;;;;;;;15.38;100.00;100021.67;104917;1264;61135;-61
2023/08/31 00:21:18;;;;;;;14.50;6.40;;;;;;;15.37;100.00;100025.52;105039;1264;61289;-60
2023/08/31 00:23:45;;;;;;;12.70;6.60;;;;;;;15.35;100.00;100022.56;104844;1267;74762;-61
2023/08/31 00:26:12;;;;;;;10.00;5.80;;;;;;;15.30;100.00;100017.73;104894;1264;67171;-62
2023/08/31 00:28:42;;;;;;;11.70;6.10;;;;;;;15.26;100.00;100015.95;104895;1264;71674;-62
2023/08/31 00:31:09;;;;;;;15.60;7.50;;;;;;;15.23;100.00;100016.27;104985;1264;61241;-61
2023/08/31 00:33:38;;;;;;;16.20;7.60;;;;;;;15.24;100.00;100020.74;104880;1264;61646;-61
2023/08/31 00:36:04;;;;;;;13.90;7.70;;;;;;;15.23;100.00;100018.94;104950;1264;74785;-60
2023/08/31 00:38:32;;;;;;;13.30;8.00;;;;;;;15.21;100.00;100017.40;105006;1266;66020;-62
2023/08/31 00:41:00;;;;;;;23.40;8.90;;;;;;;15.21;100.00;100014.98;104924;1268;71498;-61
2023/08/31 00:43:27;;;;;;;15.60;7.50;;;;;;;15.18;100.00;100018.67;105058;1264;61252;-61
2023/08/31 00:45:57;;;;;;;17.50;8.70;;;;;;;15.12;100.00;100020.75;104998;1267;61163;-60
2023/08/31 00:48:24;;;;;;;15.30;8.20;;;;;;;15.06;100.00;100015.80;104776;1264;73468;-62
2023/08/31 00:50:52;;;;;;;15.10;8.90;;;;;;;15.00;100.00;100015.55;104899;1264;67241;-60
2023/08/31 00:53:20;;;;;;;12.80;7.40;;;;;;;14.94;100.00;100013.77;104887;1264;72653;-61
2023/08/31 00:55:47;;;;;;;15.90;7.60;;;;;;;14.89;100.00;100011.09;104904;1265;61117;-63
2023/08/31 00:58:14;;;;;;;14.50;8.20;;;;;;;14.81;100.00;100009.79;104997;1264;61322;-62
2023/08/31 01:01:22;;;;;;;15.40;7.70;;;;;;;14.75;100.00;100010.73;104842;1267;74558;-63
2023/08/31 01:03:51;;;;;;;12.80;7.60;;;;;;;14.69;100.00;100009.14;105056;1267;65994;-61
2023/08/31 01:06:25;;;;;;;13.10;6.90;;;;;;;14.64;100.00;100008.58;104816;1264;72717;-61
2023/08/31 01:09:13;;;;;;;13.60;7.50;;;;;;;14.60;100.00;100008.33;104943;1264;61366;-63
2023/08/31 01:12:31;;;;;;;14.40;6.70;;;;;;;14.53;100.00;100012.17;104900;1264;61286;-61
2023/08/31 01:15:07;;;;;;;11.50;6.60;;;;;;;14.48;100.00;100019.58;104750;1264;73865;-60
2023/08/31 01:17:42;;;;;;;10.50;6.70;;;;;;;14.43;100.00;100027.20;104932;1266;67254;-59
2023/08/31 01:20:09;;;;;;;10.40;6.30;;;;;;;14.35;100.00;100027.94;104912;1264;73232;-60
2023/08/31 01:22:43;;;;;;;13.60;6.40;;;;;;;14.26;100.00;100034.30;104987;1268;61244;-61
2023/08/31 01:25:10;;;;;;;12.50;7.40;;;;;;;14.14;100.00;100038.58;104902;1264;61246;-60
2023/08/31 01:27:37;;;;;;;10.80;6.80;;;;;;;14.03;100.00;100037.20;105263;1263;74458;-63
2023/08/31 01:30:05;;;;;;;14.80;6.20;;;;;;;13.92;100.00;100035.92;105073;1269;68027;-60
2023/08/31 01:32:32;;;;;;;13.30;7.30;;;;;;;13.81;100.00;100035.66;104923;1268;71223;-60
2023/08/31 01:35:01;;;;;;;18.90;7.60;;;;;;;13.72;100.00;100036.54;104981;1264;61264;-60
2023/08/31 01:37:56;;;;;;;15.80;8.30;;;;;;;13.64;100.00;100036.23;105388;1267;61154;-63
2023/08/31 01:40:26;;;;;;;18.10;7.70;;;;;;;13.57;100.00;100033.71;104864;1265;73740;-60
2023/08/31 01:42:52;;;;;;;15.30;8.10;;;;;;;13.54;100.00;100033.52;104980;1264;65290;-60
2023/08/31 01:45:21;;;;;;;13.80;7.60;;;;;;;13.51;100.00;100033.73;104862;1268;72735;-63
2023/08/31 01:47:49;;;;;;;14.00;7.30;;;;;;;13.49;100.00;100033.14;105071;1264;61269;-60
2023/08/31 01:50:18;;;;;;;12.80;6.80;;;;;;;13.51;100.00;100033.73;104951;1265;61398;-60
2023/08/31 01:52:45;;;;;;;13.50;6.70;;;;;;;13.55;100.00;100034.23;105018;1264;73417;-62
2023/08/31 01:55:15;;;;;;;12.60;6.80;;;;;;;13.59;100.00;100042.77;105223;1270;65900;-62
2023/08/31 01:57:42;;;;;;;11.10;6.50;;;;;;;13.61;100.00;100046.55;104578;1268;72497;-62
2023/08/31 02:00:14;;;;;;;17.20;10.80;;;;;;;13.58;100.00;100047.09;104833;1264;61117;-60
2023/08/31 02:02:41;;;;;;;14.00;8.10;;;;;;;13.55;100.00;100049.79;104825;1265;61278;-63
2023/08/31 02:05:09;;;;;;;15.80;7.80;;;;;;;13.54;100.00;100050.89;104918;1264;74303;-61
2023/08/31 02:07:36;;;;;;;14.70;7.10;;;;;;;13.52;100.00;100051.77;104884;1268;67144;-61
2023/08/31 02:10:06;;;;;;;13.40;7.00;;;;;;;13.49;100.00;100060.30;104959;1264;72601;-60
2023/08/31 02:12:36;;;;;;;13.70;7.00;;;;;;;13.42;100.00;100065.19;104989;1264;61280;-61
2023/08/31 02:15:07;;;;;;;14.90;6.60;;;;;;;13.36;100.00;100063.88;104795;1268;61158;-61
2023/08/31 02:17:34;;;;;;;15.30;7.20;;;;;;;13.31;100.00;100062.16;104971;1264;75370;-60
2023/08/31 02:20:04;;;;;;;14.90;7.00;;;;;;;13.25;100.00;100068.62;105139;1267;66137;-60
2023/08/31 02:22:33;;;;;;;13.90;7.70;;;;;;;13.21;100.00;100076.33;104970;1265;70206;-60
2023/08/31 02:25:01;;;;;;;14.50;7.20;;;;;;;13.16;100.00;100077.14;105059;1264;61369;-63
2023/08/31 02:27:28;;;;;;;15.10;8.70;;;;;;;13.11;100.00;100073.77;104728;1268;61216;-60
2023/08/31 02:29:55;;;;;;;16.60;9.20;;;;;;;13.08;100.00;100076.42;104985;1264;75514;-60
2023/08/31 02:32:22;;;;;;;20.30;11.40;;;;;;;13.08;100.00;100077.52;105003;1265;66222;-60
2023/08/31 02:34:50;;;;;;;16.90;10.70;;;;;;;13.11;100.00;100082.27;105259;1264;72823;-61
2023/08/31 02:37:17;;;;;;;24.00;10.50;;;;;;;13.14;100.00;100078.43;104780;1264;61272;-62
2023/08/31 02:39:44;;;;;;;19.90;11.20;;;;;;;13.19;100.00;100075.77;105060;1264;61261;-62
2023/08/31 02:42:11;;;;;;;20.30;10.60;;;;;;;13.22;100.00;100075.20;105125;1264;72249;-61
2023/08/31 02:44:38;;;;;;;19.70;10.80;;;;;;;13.23;100.00;100064.42;104996;1264;67844;-60
2023/08/31 02:47:05;;;;;;;20.30;11.30;;;;;;;13.23;100.00;100062.61;105323;1267;72684;-63
2023/08/31 02:49:32;;;;;;;15.60;8.80;;;;;;;13.22;100.00;100073.23;104798;1266;61358;-62
2023/08/31 02:51:59;;;;;;;19.20;8.80;;;;;;;13.21;100.00;100078.14;105076;1266;61242;-61
2023/08/31 02:54:26;;;;;;;23.20;9.30;;;;;;;13.17;100.00;100081.29;105069;1265;73288;-63
2023/08/31 02:56:53;;;;;;;13.40;7.80;;;;;;;13.13;100.00;100084.34;105126;1263;67369;-62
2023/08/31 02:59:20;;;;;;;14.90;8.20;;;;;;;13.10;100.00;100085.92;105417;1265;72632;-62
2023/08/31 03:01:48;;;;;;;15.90;8.00;;;;;;;13.12;100.00;100086.65;104999;1266;61247;-62
2023/08/31 03:04:17;;;;;;;13.30;8.10;;;;;;;13.12;100.00;100085.52;104898;1268;61167;-60
2023/08/31 03:06:45;;;;;;;14.90;7.50;;;;;;;13.13;100.00;100089.91;104974;1264;73289;-60
2023/08/31 03:09:13;;;;;;;21.50;9.10;;;;;;;13.16;100.00;100085.02;104886;1264;65932;-60
2023/08/31 03:11:40;;;;;;;17.10;9.10;;;;;;;13.19;100.00;100081.27;105236;1267;73389;-62
2023/08/31 03:14:09;;;;;;;18.30;9.90;;;;;;;13.25;100.00;100077.91;104980;1267;61275;-59
2023/08/31 03:16:36;;;;;;;18.60;9.20;;;;;;;13.32;100.00;100077.91;104959;1264;61139;-60
2023/08/31 03:19:04;;;;;;;19.40;11.70;;;;;;;13.42;100.00;100082.27;104947;1265;74593;-60
2023/08/31 03:21:31;;;;;;;22.30;12.20;;;;;;;13.54;100.00;100081.42;104918;1264;67288;-61
2023/08/31 03:23:59;;;;;;;23.40;12.10;;;;;;;13.66;100.00;100080.81;104488;1264;72345;-59
2023/08/31 03:26:26;;;;;;;23.90;14.50;;;;;;;13.80;100.00;100082.36;104896;1268;61483;-60
2023/08/31 03:28:53;;;;;;;29.10;16.30;;;;;;;13.98;100.00;100085.95;104863;1264;61200;-60
2023/08/31 03:31:22;;;;;;;31.80;15.50;;;;;;;14.28;100.00;100087.65;105083;1263;74508;-62
2023/08/31 03:33:50;;;;;;;29.20;15.50;;;;;;;14.93;100.00;100086.51;104695;1264;67334;-61
2023/08/31 03:36:17;;;;;;;27.70;15.60;;;;;;;15.78;100.00;100084.41;105096;1267;72617;-60
2023/08/31 03:38:44;;;;;;;30.00;17.50;;;;;;;16.65;100.00;100078.97;104809;1265;61287;-59
2023/08/31 03:41:11;;;;;;;26.20;15.60;;;;;;;17.47;100.00;100075.23;104923;1265;61230;-60
2023/08/31 03:43:39;;;;;;;23.00;15.20;;;;;;;18.26;100.00;100076.15;105163;1275;74543;-63
2023/08/31 03:46:06;;;;;;;25.10;15.90;;;;;;;18.93;100.00;100077.11;104991;1264;67672;-61
2023/08/31 03:48:33;;;;;;;29.10;16.90;;;;;;;19.59;100.00;100076.83;104955;1264;72579;-60
2023/08/31 03:51:00;;;;;;;30.00;16.90;;;;;;;20.22;100.00;100082.65;104944;1265;61366;-61
2023/08/31 03:53:28;;;;;;;32.50;17.10;;;;;;;20.81;99.78;100076.58;105406;1265;61282;-64
2023/08/31 03:55:57;;;;;;;28.80;17.80;;;;;;;21.34;92.50;100072.01;104969;1268;75035;-62
2023/08/31 03:58:24;;;;;;;28.40;18.70;;;;;;;21.79;83.39;100074.48;104846;1266;67222;-61
2023/08/31 04:00:52;;;;;;;29.90;18.80;;;;;;;22.08;76.44;100072.05;104986;1264;72712;-60
2023/08/31 04:03:19;;;;;;;30.60;20.30;;;;;;;22.40;73.17;100071.55;104855;1266;61273;-60
2023/08/31 04:05:47;;;;;;;30.80;21.20;;;;;;;22.78;69.85;100076.27;105157;1267;61165;-63
2023/08/31 04:08:14;;;;;;;32.30;19.70;;;;;;;23.20;64.29;100079.16;104895;1267;75092;-61
2023/08/31 04:10:42;;;;;;;32.20;20.80;;;;;;;23.48;60.46;100077.73;104918;1264;67380;-60
2023/08/31 04:13:09;;;;;;;30.30;19.70;;;;;;;23.84;59.22;100083.17;104808;1265;72506;-60
2023/08/31 04:15:37;;;;;;;30.70;21.00;;;;;;;24.25;55.24;100087.44;104833;1268;61186;-63
2023/08/31 04:18:05;;;;;;;32.10;19.10;;;;;;;24.61;53.09;100090.91;104900;1267;61360;-61
2023/08/31 04:20:33;;;;;;;29.50;20.70;;;;;;;25.12;48.17;100092.65;105022;1264;74659;-61
2023/08/31 04:23:00;;;;;;;26.60;18.10;;;;;;;25.54;45.29;100090.35;104995;1266;65498;-60
2023/08/31 04:25:30;;;;;;;30.40;19.00;;;;;;;25.90;43.12;100084.63;104921;1264;72914;-61
2023/08/31 04:27:57;;;;;;;31.20;19.20;;;;;;;26.30;41.59;100084.92;104926;1266;61268;-61
2023/08/31 04:30:24;;;;;;;26.90;19.70;;;;;;;26.75;41.15;100078.31;105053;1265;61160;-60
2023/08/31 04:32:51;;;;;;;29.60;18.70;;;;;;;27.26;39.73;100077.11;104911;1263;74815;-60
2023/08/31 04:35:19;;;;;;;28.60;19.30;;;;;;;27.67;37.72;100074.50;104987;1267;67282;-60
2023/08/31 04:37:46;;;;;;;33.40;21.30;;;;;;;27.91;36.64;100076.80;105140;1268;73582;-64
2023/08/31 04:40:13;;;;;;;27.30;21.00;;;;;;;28.22;35.68;100083.00;104758;1265;62014;-60
2023/08/31 04:42:40;;;;;;;26.80;19.40;;;;;;;28.50;34.57;100082.45;104940;1267;61188;-60
2023/08/31 04:45:08;;;;;;;25.80;19.30;;;;;;;28.78;33.98;100084.73;104844;1266;73451;-62
2023/08/31 04:47:35;;;;;;;23.70;18.80;;;;;;;29.00;33.26;100088.07;105158;1265;66285;-63
2023/08/31 04:50:03;;;;;;;27.80;20.00;;;;;;;29.17;32.54;100090.01;104730;1268;73518;-63
2023/08/31 04:52:30;;;;;;;27.60;19.00;;;;;;;29.23;32.93;100094.98;104912;1266;61156;-60
2023/08/31 04:54:57;;;;;;;28.90;19.70;;;;;;;29.60;32.37;100096.66;104828;1264;61168;-60
2023/08/31 04:57:25;;;;;;;23.30;18.50;;;;;;;30.00;30.91;100092.16;105058;1265;74772;-60
2023/08/31 04:59:53;;;;;;;25.30;18.10;;;;;;;30.24;30.66;100085.31;105272;1268;65752;-63
2023/08/31 05:02:19;;;;;;;23.80;17.80;;;;;;;30.48;29.89;100082.31;104908;1265;71518;-60
2023/08/31 05:04:47;;;;;;;25.30;18.60;;;;;;;30.46;29.59;100084.63;104880;1263;61287;-61
2023/08/31 05:07:14;;;;;;;27.60;17.10;;;;;;;30.35;29.66;100092.10;105012;1264;61340;-61
2023/08/31 05:09:40;;;;;;;27.80;17.50;;;;;;;30.48;29.91;100094.05;105281;1268;74776;-63
2023/08/31 05:12:08;;;;;;;23.10;17.30;;;;;;;30.78;29.28;100093.89;105027;1265;67743;-63
2023/08/31 05:14:39;;;;;;;;;;;;;;;30.88;28.70;100093.42;104890;1268;73208;-61
2023/08/31 05:17:06;;;;;;;25.30;17.60;;;;;;;30.89;28.65;100094.72;105007;1268;61269;-61
2023/08/31 05:19:33;;;;;;;23.70;16.20;;;;;;;31.08;29.18;100090.92;104874;1265;61225;-64
2023/08/31 05:22:00;;;;;;;28.40;17.70;;;;;;;31.36;28.18;100091.52;104590;1268;75276;-62
2023/08/31 05:24:28;;;;;;;24.50;17.30;;;;;;;31.31;27.95;100087.91;105021;1268;66305;-63
2023/08/31 05:26:55;;;;;;;26.70;17.60;;;;;;;31.13;27.52;100091.05;104850;1268;73524;-60
2023/08/31 05:29:22;;;;;;;25.90;16.80;;;;;;;30.82;27.82;100095.59;104851;1265;61266;-60
2023/08/31 05:31:51;;;;;;;24.10;17.70;;;;;;;30.58;28.32;100096.88;105175;1268;60376;-61
2023/08/31 05:34:20;;;;;;;29.70;18.70;;;;;;;30.19;28.85;100097.29;105281;1266;74446;-61
2023/08/31 05:36:47;;;;;;;23.80;18.30;;;;;;;29.66;29.39;100103.67;104726;1268;67201;-62
2023/08/31 05:39:16;;;;;;;26.10;18.70;;;;;;;29.23;30.17;100105.48;104879;1266;71651;-61
2023/08/31 05:41:43;;;;;;;27.00;19.00;;;;;;;28.84;30.76;100105.69;105079;1264;61267;-62
2023/08/31 05:44:10;;;;;;;34.70;20.30;;;;;;;28.40;31.09;100103.08;104982;1265;61266;-61
2023/08/31 05:46:39;;;;;;;33.40;19.40;;;;;;;28.15;31.79;100105.25;105328;1266;73257;-64
2023/08/31 05:49:07;;;;;;;28.10;18.90;;;;;;;28.08;32.59;100104.18;104816;1263;67993;-61
2023/08/31 05:51:34;;;;;;;29.50;19.10;;;;;;;28.09;32.50;100107.53;105013;1267;71465;-64
2023/08/31 05:54:02;;;;;;;25.80;17.90;;;;;;;28.18;32.98;100107.21;104679;1268;61248;-61
2023/08/31 05:56:30;;;;;;;26.10;17.40;;;;;;;28.54;32.35;100106.86;104965;1267;61153;-61
2023/08/31 05:58:57;;;;;;;28.00;18.10;;;;;;;28.93;31.76;100103.52;105209;1268;74692;-63
2023/08/31 06:01:23;;;;;;;28.20;19.70;;;;;;;28.99;31.53;100096.70;104665;1268;66554;-61
2023/08/31 06:03:50;;;;;;;28.50;17.70;;;;;;;28.79;31.72;100098.45;105205;1267;71175;-64
2023/08/31 06:06:17;;;;;;;24.70;17.20;;;;;;;28.53;32.18;100102.12;104842;1268;61389;-61
2023/08/31 06:08:45;;;;;;;25.70;17.60;;;;;;;28.33;33.04;100101.56;104911;1268;61385;-60
2023/08/31 06:11:13;;;;;;;28.30;18.70;;;;;;;28.25;33.38;100102.29;105229;1265;73543;-62
2023/08/31 06:13:40;;;;;;;25.30;18.20;;;;;;;28.34;33.96;100105.41;104918;1265;67855;-61
2023/08/31 06:16:07;;;;;;;26.90;18.10;;;;;;;28.59;33.80;100107.98;104889;1268;73219;-63
2023/08/31 06:18:34;;;;;;;26.60;16.00;;;;;;;28.95;33.47;100100.66;104887;1270;61246;-61
2023/08/31 06:21:02;;;;;;;25.60;18.10;;;;;;;29.18;32.34;100099.67;104866;1266;61275;-62
2023/08/31 06:23:29;;;;;;;24.70;17.10;;;;;;;29.47;32.33;100097.84;105111;1268;74707;-64
2023/08/31 06:25:56;;;;;;;25.10;16.90;;;;;;;29.92;31.61;100098.99;104914;1265;67229;-61
2023/08/31 06:28:23;;;;;;;26.80;16.90;;;;;;;30.35;31.20;100098.14;104766;1265;72824;-61
2023/08/31 06:30:50;;;;;;;21.10;14.20;;;;;;;30.80;30.58;100097.02;104949;1266;61331;-61
2023/08/31 06:33:18;;;;;;;23.00;15.60;;;;;;;31.29;29.90;100095.86;104995;1265;61223;-61
2023/08/31 06:35:54;;;;;;;18.90;13.00;;;;;;;31.64;28.85;100091.34;104843;1263;73476;-62
2023/08/31 06:38:21;;;;;;;19.20;13.50;;;;;;;31.92;28.70;100089.91;104550;1265;67196;-63
2023/08/31 06:40:48;;;;;;;22.20;14.20;;;;;;;32.09;28.13;100087.30;104864;1264;72713;-61
2023/08/31 06:43:15;;;;;;;24.40;13.40;;;;;;;32.22;28.06;100087.61;104866;1265;61237;-63
2023/08/31 06:45:42;;;;;;;22.60;12.80;;;;;;;32.41;27.64;100088.86;105039;1265;61172;-61
2023/08/31 06:48:09;;;;;;;19.80;13.30;;;;;;;32.54;27.49;100087.33;105131;1264;74707;-63
2023/08/31 06:50:36;;;;;;;23.10;12.60;;;;;;;32.72;27.66;100085.28;104928;1268;67406;-61
2023/08/31 06:53:04;;;;;;;20.70;12.10;;;;;;;32.95;26.93;100081.10;104872;1268;72799;-61
2023/08/31 06:55:31;;;;;;;18.10;11.70;;;;;;;33.12;26.39;100079.77;105134;1266;61232;-64
2023/08/31 06:58:00;;;;;;;15.70;10.20;;;;;;;33.30;26.32;100077.23;104965;1268;61120;-62
2023/08/31 07:00:28;;;;;;;15.90;10.10;;;;;;;33.53;25.92;100079.73;104888;1266;76318;-61
2023/08/31 07:02:55;;;;;;;16.40;10.20;;;;;;;33.73;25.47;100079.44;104893;1265;67275;-61
2023/08/31 07:05:25;;;;;;;13.70;8.80;;;;;;;33.73;24.89;100080.61;104916;1268;71364;-64
2023/08/31 07:07:54;;;;;;;13.60;8.10;;;;;;;33.71;24.92;100079.47;104904;1268;61264;-61
2023/08/31 07:10:23;;;;;;;9.80;7.10;;;;;;;33.78;24.10;100076.14;104942;1268;61623;-60
2023/08/31 07:12:50;;;;;;;15.80;7.40;;;;;;;33.80;23.67;100076.96;104856;1268;74647;-61
2023/08/31 07:15:18;;;;;;;12.40;6.30;;;;;;;33.72;23.34;100078.95;104924;1266;65361;-61
2023/08/31 07:17:44;;;;;;;11.40;7.20;;;;;;;33.71;23.85;100076.08;104928;1264;73143;-62
2023/08/31 07:20:12;;;;;;;14.90;6.80;;;;;;;33.84;23.74;100082.09;104882;1268;61240;-61
2023/08/31 07:22:40;;;;;;;12.50;6.60;;;;;;;33.88;23.45;100077.95;105101;1268;61252;-60
2023/08/31 07:25:08;;;;;;;11.40;6.10;;;;;;;33.80;24.03;100074.65;105008;1264;73293;-61
2023/08/31 07:27:35;;;;;;;10.80;6.70;;;;;;;33.92;23.38;100076.08;105466;1268;65727;-63
2023/08/31 07:30:03;;;;;;;10.80;5.50;;;;;;;33.99;23.46;100079.52;105088;1265;62851;-62
2023/08/31 07:32:31;;;;;;;12.90;5.70;;;;;;;34.05;23.59;100074.98;105112;1269;61200;-61
2023/08/31 07:34:58;;;;;;;9.60;5.40;;;;;;;34.23;23.33;100063.55;104897;1263;61308;-63
2023/08/31 07:37:26;;;;;;;10.80;5.10;;;;;;;34.43;23.38;100059.89;104888;1265;64774;-62
2023/08/31 07:39:53;;;;;;;9.00;5.00;;;;;;;34.63;22.70;100058.76;104662;1268;65860;-62
2023/08/31 07:42:20;;;;;;;12.80;5.00;;;;;;;34.70;22.60;100057.77;104975;1268;72537;-62
2023/08/31 07:44:47;;;;;;;8.00;4.00;;;;;;;34.83;22.47;100055.07;104967;1268;61454;-60
2023/08/31 07:47:14;;;;;;;5.10;2.80;;;;;;;35.11;21.58;100056.49;104910;1268;61235;-60
2023/08/31 07:49:41;;;;;;;4.40;2.70;;;;;;;35.28;20.22;100056.02;105152;1268;66094;-61
2023/08/31 07:52:08;;;;;;;6.50;2.90;;;;;;;35.35;18.79;100052.30;104664;1268;61248;-62
2023/08/31 07:54:35;;;;;;;6.50;2.40;;;;;;;35.21;18.23;100053.16;104677;1267;64682;-60
2023/08/31 07:57:03;;;;;;;4.20;2.60;;;;;;;35.02;18.19;100048.95;104961;1268;61355;-61
2023/08/31 07:59:30;;;;;;;10.30;3.00;;;;;;;35.03;18.35;100050.14;104881;1268;61107;-60
2023/08/31 08:01:57;;;;;;;5.50;2.80;;;;;;;35.19;18.03;100046.45;105119;1266;73559;-62
2023/08/31 08:04:25;;;;;;;8.40;2.70;;;;;;;35.30;18.24;100050.63;104742;1266;68448;-61
2023/08/31 08:06:53;;;;;;;5.30;3.30;;;;;;;35.39;17.68;100046.56;104885;1265;65028;-60
2023/08/31 08:09:20;;;;;;;7.70;3.20;;;;;;;35.23;17.59;100041.05;104979;1267;61367;-60
2023/08/31 08:11:47;;;;;;;5.20;3.80;;;;;;;35.15;17.67;100039.86;104983;1268;61144;-63
2023/08/31 08:14:15;;;;;;;5.70;2.80;;;;;;;35.18;18.17;100042.95;105065;1263;66464;-64
2023/08/31 08:16:42;;;;;;;6.80;3.20;;;;;;;35.29;18.13;100039.63;105074;1265;60393;-60
2023/08/31 08:19:09;;;;;;;8.00;4.30;;;;;;;35.49;18.30;100041.13;104878;1268;73209;-60
2023/08/31 08:21:36;;;;;;;7.30;4.60;;;;;;;35.58;18.05;100040.72;104854;1266;61159;-60
2023/08/31 08:24:03;;;;;;;8.10;4.00;;;;;;;35.48;17.99;100044.23;105184;1264;61293;-61
2023/08/31 08:26:30;;;;;;;6.30;4.20;;;;;;;35.39;18.11;100043.48;104857;1266;73238;-61
2023/08/31 08:28:57;;;;;;;8.10;3.70;;;;;;;35.28;17.95;100043.48;104981;1268;67638;-60
2023/08/31 08:31:24;;;;;;;6.40;4.40;;;;;;;35.13;17.71;100041.92;104834;1268;62804;-60
2023/08/31 08:33:52;;;;;;;6.30;3.90;;;;;;;34.95;18.35;100039.34;105578;1268;61423;-63
2023/08/31 08:36:19;;;;;;;10.10;5.60;;;;;;;35.12;18.33;100034.52;105100;1268;61357;-61
2023/08/31 08:38:46;;;;;;;8.40;5.30;;;;;;;35.20;18.15;100028.45;104858;1267;64892;-60
2023/08/31 08:41:14;;;;;;;7.60;5.40;;;;;;;35.25;18.65;100024.83;104904;1268;67103;-60
2023/08/31 08:43:42;;;;;;;8.60;5.80;;;;;;;35.54;18.52;100021.94;104707;1268;72649;-60
2023/08/31 08:46:09;;;;;;;8.90;5.10;;;;;;;35.88;17.83;100022.86;104875;1266;61372;-61
2023/08/31 08:48:37;;;;;;;6.20;5.20;;;;;;;36.23;17.64;100021.79;104895;1266;61360;-61
2023/08/31 08:51:04;;;;;;;9.20;5.70;;;;;;;36.44;17.45;100018.73;104827;1269;66131;-60
2023/08/31 08:53:31;;;;;;;9.60;7.10;;;;;;;36.53;17.94;100018.43;104992;1264;61265;-60
2023/08/31 08:55:58;;;;;;;11.30;7.50;;;;;;;36.49;17.65;100020.14;105072;1266;62599;-62
2023/08/31 08:58:25;;;;;;;8.70;7.20;;;;;;;36.26;17.15;100022.54;104837;1268;61330;-61
2023/08/31 09:00:54;;;;;;;8.40;7.00;;;;;;;35.84;17.21;100020.52;104855;1268;60753;-60
2023/08/31 09:03:21;;;;;;;9.20;7.80;;;;;;;35.40;17.28;100017.48;104852;1265;74684;-60
2023/08/31 09:05:48;;;;;;;8.50;7.60;;;;;;;35.15;17.58;100009.66;105041;1268;61280;-63
2023/08/31 09:08:15;;;;;;;9.60;7.20;;;;;;;35.07;17.48;100009.83;104830;1268;64154;-59
2023/08/31 09:10:43;;;;;;;9.20;7.00;;;;;;;34.99;18.03;100014.04;104933;1270;61266;-62
2023/08/31 09:13:12;;;;;;;7.80;7.00;;;;;;;34.85;17.77;100025.31;104995;1267;61159;-60
2023/08/31 09:15:41;;;;;;;10.90;6.60;;;;;;;34.82;17.95;100019.30;104897;1267;74629;-60
2023/08/31 09:18:21;;;;;;;7.00;5.70;;;;;;;35.12;18.22;100022.46;105004;1268;266747;-60
2023/08/31 09:20:48;;;;;;;8.50;5.60;;;;;;;35.23;18.36;100021.76;104688;1271;63771;-60
2023/08/31 09:23:16;;;;;;;6.30;5.40;;;;;;;35.30;17.97;100017.66;104919;1266;61219;-60
2023/08/31 09:25:48;;;;;;;10.80;5.50;;;;;;;35.48;17.96;100011.77;105026;1267;61324;-62
2023/08/31 09:28:16;;;;;;;10.70;7.20;;;;;;;35.62;17.97;100011.59;104888;1264;73505;-63
2023/08/31 09:30:48;;;;;;;10.80;9.20;;;;;;;35.61;17.75;100009.95;104840;1264;61159;-60
2023/08/31 09:33:17;;;;;;;10.20;8.70;;;;;;;35.51;17.69;100008.11;104729;1267;72648;-59
2023/08/31 09:35:59;;;;;;;11.20;9.20;;;;;;;35.60;17.46;100004.96;104795;1264;61232;-60
2023/08/31 09:38:26;;;;;;;13.40;9.40;;;;;;;35.82;17.93;100004.98;104612;1264;61396;-59
2023/08/31 09:41:04;;;;;;;9.50;8.50;;;;;;;36.03;17.74;100013.30;104873;1265;64950;-60
2023/08/31 09:43:31;;;;;;;14.40;11.00;;;;;;;36.12;16.93;100010.21;104868;1277;61255;-60
2023/08/31 09:45:59;;;;;;;13.90;10.80;;;;;;;36.25;16.66;100008.42;104941;1266;62517;-62
2023/08/31 09:48:26;;;;;;;13.00;11.70;;;;;;;36.37;16.75;100011.09;104815;1269;61333;-59
2023/08/31 09:50:53;;;;;;;12.30;11.00;;;;;;;36.49;16.60;100013.71;105078;1268;62727;-62
2023/08/31 09:53:21;;;;;;;11.90;10.80;;;;;;;36.50;16.43;100016.52;104937;1265;66061;-61
2023/08/31 09:55:51;;;;;;;13.60;11.80;;;;;;;36.31;16.57;100023.39;105061;1268;61367;-59
2023/08/31 09:58:20;;;;;;;13.50;11.40;;;;;;;36.11;16.24;100014.37;104920;1268;73537;-60
2023/08/31 10:00:51;;;;;;;12.20;11.00;;;;;;;35.93;16.48;100009.38;104897;1268;61177;-61
2023/08/31 10:03:20;;;;;;;12.00;10.80;;;;;;;36.04;17.15;100014.02;104981;1264;61156;-59
2023/08/31 10:05:49;;;;;;;15.40;11.30;;;;;;;36.23;16.85;100017.92;105009;1268;66791;-58
2023/08/31 10:08:17;;;;;;;13.60;11.90;;;;;;;36.24;16.35;100015.14;104989;1271;61162;-60
2023/08/31 10:10:44;;;;;;;13.00;11.60;;;;;;;36.19;16.34;100013.95;105051;1268;64117;-61
2023/08/31 10:13:11;;;;;;;15.10;11.60;;;;;;;36.23;16.49;100011.80;105018;1267;61373;-60
2023/08/31 10:15:39;;;;;;;12.30;11.10;;;;;;;36.32;16.48;100014.73;104971;1265;61128;-59
2023/08/31 10:18:06;;;;;;;13.10;10.80;;;;;;;36.36;16.36;100015.55;105279;1268;65915;-63
2023/08/31 10:20:34;;;;;;;12.50;11.20;;;;;;;36.37;16.06;100016.59;104798;1268;61151;-63
2023/08/31 10:23:05;;;;;;;13.40;11.70;;;;;;;36.21;16.26;100010.44;104913;1266;63847;-60
2023/08/31 10:25:50;;;;;;;14.00;11.20;;;;;;;36.01;16.52;100008.85;104912;1268;61389;-60
2023/08/31 10:28:22;;;;;;;17.10;13.90;;;;;;;35.97;17.08;100008.55;105275;1267;61156;-63
2023/08/31 10:31:04;;;;;;;19.50;14.40;;;;;;;36.03;16.87;100003.45;105027;1265;66079;-60
2023/08/31 10:33:35;;;;;;;16.10;14.40;;;;;;;36.10;17.06;100000.95;104966;1275;61247;-60
2023/08/31 10:36:01;;;;;;;15.30;13.40;;;;;;;36.22;16.92;99998.44;105184;1268;63973;-63
2023/08/31 10:38:30;;;;;;;14.90;13.40;;;;;;;36.16;17.23;99990.58;104818;1268;61156;-61
2023/08/31 10:41:06;;;;;;;15.40;13.80;;;;;;;36.04;17.31;99992.30;105059;1268;61244;-60
2023/08/31 10:43:52;;;;;;;17.40;14.50;;;;;;;35.79;16.79;99992.14;104902;1267;67570;-60
2023/08/31 10:46:35;;;;;;;21.40;14.20;;;;;;;35.42;16.85;99991.80;104938;1267;61101;-61
2023/08/31 10:49:11;;;;;;;16.30;12.20;;;;;;;35.14;16.85;99984.19;105000;1268;62649;-60
2023/08/31 10:51:39;;;;;;;15.30;12.60;;;;;;;34.98;16.97;99979.48;104808;1268;61315;-61
2023/08/31 10:54:34;;;;;;;15.80;14.20;;;;;;;34.91;17.78;99979.40;105039;1266;60935;-60
2023/08/31 10:57:08;;;;;;;16.90;13.40;;;;;;;34.93;18.13;99975.12;104717;1268;73599;-63
2023/08/31 10:59:47;;;;;;;14.20;12.70;;;;;;;35.05;18.09;99981.85;104920;1268;66869;-60
2023/08/31 11:02:37;;;;;;;13.70;12.40;;;;;;;35.12;17.74;99977.11;104914;1264;64135;-60
2023/08/31 11:05:08;;;;;;;14.10;11.40;;;;;;;35.13;17.49;99971.48;104933;1268;61400;-60
2023/08/31 11:07:36;;;;;;;12.60;10.70;;;;;;;35.07;17.35;99968.09;104765;1268;61884;-61
2023/08/31 11:10:18;;;;;;;10.90;9.90;;;;;;;34.98;17.13;99971.21;104959;1264;64905;-61
2023/08/31 11:12:46;;;;;;;14.10;12.80;;;;;;;34.94;17.41;99963.09;104950;1269;66250;-62